»·PEaware :: PH-TIM KSBD-KONT

PH-TIM :: KSBD-KONT

FLIGHT INFORMATION

Flight Status: Arrived
Operator: Privately registered:
Netherlands
More flights under this callsign
Pilot: Tim P. (6337)
Aircraft: CESSNA 172 SKYHAWK
(C172)
More flights by this aircraft type
Origin: KSBD San Bernardino Intl
United States
Destination: KONT Ontario Intl
United States
More flights between these airports :: More routes between these airports
Route: +
File this flight plan on PilotEdge
Remarks:
Altitude:
(Current/Filed)
0ft
Speed:
(Current/Filed)
0kts
Departed: 30-Mar-18 11:38 AM
Arrived: 30-Mar-18 12:08 PM
Distance/Time
Traveled:
18nm/0:30
Distance/Time
To Go:
Arrived

Flight Plot

Page will automatically refresh every two minutes.


Map Options




Map Legend


Flown Route
Filed Route
Departure Airport
Arrival Airport
Navaid (VOR, NDB)
Fix

Horizontal Profiles

Position Reports

Time Latitude Longitude Heading Altitude Ground
Speed
30-Mar-18 11:22 34.102165 -117.224730 93 1146ft 0kts
30-Mar-18 11:23 34.102165 -117.224730 93 1146ft 0kts
30-Mar-18 11:24 34.102165 -117.224730 93 1146ft 0kts
30-Mar-18 11:25 34.102165 -117.224730 93 1146ft 0kts
30-Mar-18 11:26 34.102165 -117.224730 93 1146ft 0kts
30-Mar-18 11:27 34.100855 -117.223874 70 1148ft 10kts
30-Mar-18 11:28 34.101522 -117.219984 70 1159ft 11kts
30-Mar-18 11:29 34.101400 -117.219204 192 1160ft 0kts
30-Mar-18 11:30 34.101401 -117.219204 192 1160ft 0kts
30-Mar-18 11:31 34.101401 -117.219204 192 1160ft 0kts
30-Mar-18 11:32 34.101401 -117.219204 192 1160ft 0kts
30-Mar-18 11:33 34.101401 -117.219204 192 1160ft 0kts
30-Mar-18 11:34 34.101401 -117.219204 192 1160ft 0kts
30-Mar-18 11:35 34.101401 -117.219204 192 1160ft 0kts
30-Mar-18 11:36 34.101401 -117.219204 192 1160ft 0kts
30-Mar-18 11:37 34.098668 -117.223450 249 1161ft 70kts
30-Mar-18 11:38 34.091092 -117.248078 248 1904ft 80kts
30-Mar-18 11:39 34.082368 -117.274356 249 2744ft 86kts
30-Mar-18 11:40 34.072698 -117.300692 245 3574ft 87kts
30-Mar-18 11:41 34.063137 -117.330376 250 3968ft 97kts
30-Mar-18 11:42 34.052109 -117.361695 243 3970ft 102kts
30-Mar-18 11:43 34.042467 -117.393876 254 4018ft 102kts
30-Mar-18 11:44 34.033465 -117.426437 248 4059ft 102kts
30-Mar-18 11:45 34.023523 -117.458620 250 4097ft 102kts
30-Mar-18 11:46 34.013266 -117.491115 248 4110ft 103kts
30-Mar-18 11:47 34.004110 -117.524533 254 4097ft 104kts
30-Mar-18 11:48 33.996090 -117.557848 252 4093ft 105kts
30-Mar-18 11:49 34.011986 -117.566875 76 4064ft 105kts
30-Mar-18 11:50 34.013395 -117.531754 87 4066ft 105kts
30-Mar-18 11:51 34.016045 -117.496640 83 4072ft 105kts
30-Mar-18 11:52 34.018744 -117.461598 84 4072ft 105kts
30-Mar-18 11:53 34.021043 -117.426554 82 4071ft 105kts
30-Mar-18 11:54 34.026697 -117.392020 83 4074ft 104kts
30-Mar-18 11:55 34.030922 -117.357327 83 4076ft 104kts
30-Mar-18 11:56 34.036611 -117.323542 42 4065ft 105kts
30-Mar-18 11:57 34.054722 -117.341281 287 4059ft 105kts
30-Mar-18 11:58 34.055690 -117.376563 269 3932ft 105kts
30-Mar-18 11:59 34.055783 -117.409979 271 3856ft 103kts
30-Mar-18 12:00 34.056056 -117.444845 271 3204ft 102kts
30-Mar-18 12:01 34.055396 -117.475022 272 2741ft 81kts
30-Mar-18 12:02 34.055424 -117.502520 268 2291ft 84kts
30-Mar-18 12:03 34.056740 -117.529851 277 1925ft 82kts
30-Mar-18 12:04 34.056825 -117.556189 271 1489ft 68kts
30-Mar-18 12:05 34.056897 -117.577444 269 1104ft 62kts
30-Mar-18 12:06 34.056884 -117.597043 269 926ft 41kts
30-Mar-18 12:07 34.055957 -117.599638 165 923ft 0kts
30-Mar-18 12:08 34.055957 -117.599638 165 923ft 0kts
30-Mar-18 12:09 34.053855 -117.598290 251 915ft 17kts
30-Mar-18 12:10 34.053160 -117.599244 236 913ft 0kts
30-Mar-18 12:11 34.053160 -117.599244 236 913ft 0kts
30-Mar-18 12:12 34.053160 -117.599243 236 913ft 0kts
30-Mar-18 12:13 34.053160 -117.599243 236 913ft 0kts
30-Mar-18 12:14 34.053160 -117.599243 236 913ft 0kts

Navigation Log

Ident Type
Flight plan parsing failed, navigation log unavailable